Time;durP1;ratioP1;P1;durP2;ratioP2;P2;SDS_P1;SDS_P2;PMS_P1;PMS_P2;Temp;Humidity;BMP_temperature;BMP_pressure;BME280_temperature;BME280_humidity;BME280_pressure;Samples;Min_cycle;Max_cycle;Signal;HPM_P1;HPM_P2
2024/01/02 00:00:37;;;;;;;1.20;0.93;;;;;;;-145.69;51.55;52274.06;5076302;28;20210;-77
2024/01/02 00:03:03;;;;;;;4.53;1.10;;;;;;;-145.69;51.40;52282.00;5076102;28;20206;-78
2024/01/02 00:05:30;;;;;;;3.03;1.00;;;;;;;-145.69;51.79;52295.84;5076094;28;20205;-76
2024/01/02 00:07:56;;;;;;;3.17;1.00;;;;;;;-145.69;51.33;52266.16;5075885;28;20205;-77
2024/01/02 00:10:23;;;;;;;1.63;1.10;;;;;;;-145.69;51.51;52270.13;5085545;28;20217;-77
2024/01/02 00:12:53;;;;;;;3.30;1.03;;;;;;;-145.69;51.33;52250.31;5095962;28;20191;-77
2024/01/02 00:15:19;;;;;;;4.67;1.13;;;;;;;-145.69;51.41;52278.03;5095943;28;20288;-77
2024/01/02 00:17:46;;;;;;;3.97;1.10;;;;;;;-145.69;51.50;52248.34;5075942;28;20202;-77
2024/01/02 00:20:20;;;;;;;2.00;0.83;;;;;;;-145.69;50.82;52250.31;5075631;28;20248;-80
2024/01/02 00:22:48;;;;;;;1.60;1.10;;;;;;;-145.69;51.17;52270.13;5075727;28;20202;-77
2024/01/02 00:25:16;;;;;;;4.27;1.10;;;;;;;-145.69;51.45;52258.22;5075857;28;20199;-76
2024/01/02 00:27:42;;;;;;;1.90;1.03;;;;;;;-145.69;51.63;52270.13;5075719;28;20207;-77
2024/01/02 00:30:11;;;;;;;1.37;0.87;;;;;;;-145.69;51.50;52270.13;5075756;28;20227;-78
2024/01/02 00:32:37;;;;;;;2.70;1.07;;;;;;;-145.69;50.59;52291.91;5075519;28;20281;-78
2024/01/02 00:35:05;;;;;;;3.73;1.10;;;;;;;-145.69;50.66;52278.03;5075362;28;20286;-78
2024/01/02 00:37:31;;;;;;;3.90;0.90;;;;;;;-145.69;51.25;52244.38;5075475;28;20202;-78
2024/01/02 00:39:58;;;;;;;2.07;0.80;;;;;;;-145.69;50.72;52282.00;5081683;28;20534;-78
2024/01/02 00:42:24;;;;;;;0.70;0.70;;;;;;;-145.69;51.61;52254.28;5094839;28;20679;-78
2024/01/02 00:44:51;;;;;;;2.10;1.00;;;;;;;-145.69;51.20;52266.16;5094850;28;20794;-78
2024/01/02 00:47:21;;;;;;;0.87;0.70;;;;;;;-145.69;51.02;52285.97;5095601;28;20194;-78
2024/01/02 00:49:47;;;;;;;3.70;0.80;;;;;;;-145.69;50.88;52238.44;5095368;28;20604;-80
2024/01/02 00:52:14;;;;;;;0.87;0.63;;;;;;;-145.69;50.66;52283.97;5095041;28;20202;-80
2024/01/02 00:54:40;;;;;;;0.83;0.80;;;;;;;-145.69;50.75;52305.75;5095641;28;20206;-80
2024/01/02 00:57:07;;;;;;;2.30;0.87;;;;;;;-145.69;51.13;52236.44;5095457;28;20277;-80
2024/01/02 00:59:34;;;;;;;2.67;0.97;;;;;;;-145.69;50.80;52278.03;5095112;28;20325;-80
2024/01/02 01:02:02;;;;;;;4.53;0.80;;;;;;;-145.69;50.94;52270.13;5095199;28;20652;-78
2024/01/02 01:04:30;;;;;;;0.87;0.60;;;;;;;-145.69;51.86;52246.34;5094898;28;20281;-79
2024/01/02 01:06:58;;;;;;;0.60;0.60;;;;;;;-145.69;51.81;52297.84;5095262;28;20247;-79
2024/01/02 01:09:25;;;;;;;1.30;0.63;;;;;;;-145.69;51.49;52266.16;5093363;28;20253;-79
2024/01/02 01:11:51;;;;;;;1.07;0.60;;;;;;;-145.69;51.80;52293.88;5094498;28;20191;-80
2024/01/02 01:14:18;;;;;;;2.50;0.80;;;;;;;-145.69;51.86;52289.91;5095071;28;20679;-79
2024/01/02 01:16:43;;;;;;;1.47;0.80;;;;;;;-145.69;51.61;52285.97;5094162;28;20202;-79
2024/01/02 01:19:10;;;;;;;0.83;0.70;;;;;;;-145.69;51.66;52244.38;5094553;28;20206;-79
2024/01/02 01:21:38;;;;;;;1.90;0.70;;;;;;;-145.69;51.86;52282.00;5094754;28;20653;-79
2024/01/02 01:24:05;;;;;;;0.83;0.73;;;;;;;-145.69;51.47;52250.31;5094894;28;20205;-80
2024/01/02 01:26:31;;;;;;;0.80;0.70;;;;;;;-145.69;51.62;52278.03;5094712;28;20202;-80
2024/01/02 01:28:58;;;;;;;0.90;0.80;;;;;;;-145.69;52.08;52297.84;5094700;28;20645;-79
2024/01/02 01:31:24;;;;;;;1.03;0.70;;;;;;;-145.69;51.82;52272.09;5094099;28;20248;-79
2024/01/02 01:33:51;;;;;;;1.50;0.80;;;;;;;-145.69;51.93;52282.00;5094231;28;20217;-79
2024/01/02 01:36:17;;;;;;;2.10;0.80;;;;;;;-145.69;52.19;52297.84;5094376;28;20202;-79
2024/01/02 01:38:48;;;;;;;2.30;0.70;;;;;;;-145.69;51.76;52254.28;5094341;28;20198;-79
2024/01/02 01:41:15;;;;;;;2.47;0.90;;;;;;;-145.69;52.08;52266.16;5094317;28;20198;-78
2024/01/02 01:43:44;;;;;;;1.00;0.90;;;;;;;-145.69;52.39;52283.97;5094345;28;20656;-79
2024/01/02 01:46:10;;;;;;;2.13;0.80;;;;;;;-145.69;52.90;52234.47;5094542;28;20210;-79
2024/01/02 01:48:43;;;;;;;1.50;0.90;;;;;;;-145.69;52.56;52262.19;5074861;28;20203;-79
2024/01/02 01:51:13;;;;;;;1.97;0.70;;;;;;;-145.69;52.29;52246.34;5073873;28;20230;-79
2024/01/02 01:53:40;;;;;;;1.73;1.00;;;;;;;-145.69;52.15;52246.34;5073974;28;20202;-80
2024/01/02 01:56:09;;;;;;;2.30;0.93;;;;;;;-145.69;51.33;52280.00;5073931;28;20294;-79
2024/01/02 01:58:35;;;;;;;1.35;0.70;;;;;;;-145.69;51.93;52270.13;5073361;28;20438;-79
2024/01/02 02:01:02;;;;;;;0.60;0.60;;;;;;;-145.69;51.28;52258.22;5073532;28;20285;-79
2024/01/02 02:03:29;;;;;;;0.67;0.60;;;;;;;-145.69;51.83;52297.84;5073783;28;20668;-78
2024/01/02 02:05:55;;;;;;;2.43;0.80;;;;;;;-145.69;50.93;52280.00;5073939;28;20230;-79
2024/01/02 02:08:31;;;;;;;0.80;0.80;;;;;;;-145.69;51.59;52240.41;5081912;28;20196;-78
2024/01/02 02:10:57;;;;;;;1.40;0.70;;;;;;;-145.69;51.55;52246.34;5093547;28;20228;-79
2024/01/02 02:13:25;;;;;;;3.73;0.90;;;;;;;-145.69;50.97;52262.19;5093723;28;20194;-79
2024/01/02 02:15:52;;;;;;;2.10;0.90;;;;;;;-145.69;51.45;52282.00;5092744;28;20194;-80
2024/01/02 02:18:18;;;;;;;6.50;0.90;;;;;;;-145.69;51.17;52226.53;5093702;28;20297;-81
2024/01/02 02:20:45;;;;;;;0.87;0.60;;;;;;;-145.69;51.10;52278.03;5093079;28;20198;-79
2024/01/02 02:23:12;;;;;;;1.07;0.63;;;;;;;-145.69;51.25;52282.00;5093428;28;20675;-79
2024/01/02 02:25:39;;;;;;;0.60;0.60;;;;;;;-145.69;50.90;52270.13;5093401;28;20202;-80
2024/01/02 02:28:12;;;;;;;0.70;0.67;;;;;;;-145.69;51.09;52276.06;5093448;28;20202;-79
2024/01/02 02:30:39;;;;;;;1.00;0.60;;;;;;;-145.69;51.48;52252.28;5093770;28;20266;-80
2024/01/02 02:33:05;;;;;;;0.50;0.50;;;;;;;-145.69;51.58;52266.16;5093573;28;20201;-80
2024/01/02 02:35:34;;;;;;;3.40;0.63;;;;;;;-145.69;51.05;52244.38;5093130;28;20194;-80
2024/01/02 02:38:01;;;;;;;1.67;0.70;;;;;;;-145.69;51.15;52283.97;5093378;28;20198;-79
2024/01/02 02:40:29;;;;;;;2.27;0.60;;;;;;;-145.69;51.63;52262.19;5093730;28;20201;-80
2024/01/02 02:42:55;;;;;;;2.97;0.67;;;;;;;-145.69;51.20;52258.22;5093254;28;20202;-80
2024/01/02 02:45:27;;;;;;;1.03;0.60;;;;;;;-145.69;51.03;52274.06;5092845;28;20549;-80
2024/01/02 02:47:54;;;;;;;1.73;0.70;;;;;;;-145.69;51.42;52240.41;5093392;28;20208;-80
2024/01/02 02:50:22;;;;;;;2.17;0.50;;;;;;;-145.69;51.43;52238.44;5093194;28;20235;-79
2024/01/02 02:52:49;;;;;;;1.43;0.70;;;;;;;-145.69;51.20;52234.47;5093254;28;20206;-80
2024/01/02 02:55:15;;;;;;;0.50;0.50;;;;;;;-145.69;51.33;52244.38;5093212;28;20656;-79
2024/01/02 02:57:43;;;;;;;0.50;0.50;;;;;;;-145.69;51.06;52256.25;5092937;28;20238;-80
2024/01/02 03:00:11;;;;;;;1.03;0.60;;;;;;;-145.69;51.35;52270.13;5093301;28;20244;-79
2024/01/02 03:02:37;;;;;;;0.80;0.70;;;;;;;-145.69;50.81;52252.28;5093179;28;20198;-79
2024/01/02 03:05:05;;;;;;;2.37;0.80;;;;;;;-145.69;50.96;52262.19;5092919;28;20676;-79
2024/01/02 03:07:34;;;;;;;1.73;0.70;;;;;;;-145.69;51.05;52262.19;5093094;28;20198;-79
2024/01/02 03:10:01;;;;;;;0.50;0.50;;;;;;;-145.69;51.15;52242.38;5093010;28;20232;-80
2024/01/02 03:12:27;;;;;;;1.07;0.60;;;;;;;-145.69;51.05;52212.69;5092641;28;20239;-80
2024/01/02 03:14:55;;;;;;;2.70;0.57;;;;;;;-145.69;51.50;52282.00;5092443;28;20641;-80
2024/01/02 03:17:22;;;;;;;0.50;0.50;;;;;;;-145.69;51.28;52287.94;5092938;28;20198;-80
2024/01/02 03:19:48;;;;;;;0.50;0.50;;;;;;;-145.69;51.91;52266.16;5093074;28;20255;-80
2024/01/02 03:22:14;;;;;;;0.57;0.53;;;;;;;-145.69;52.54;52256.25;5093121;28;20201;-80
2024/01/02 03:24:41;;;;;;;1.77;0.50;;;;;;;-145.69;53.20;52276.06;5093090;28;20202;-80
2024/01/02 03:27:07;;;;;;;0.40;0.40;;;;;;;-145.69;53.28;52264.16;5092982;28;20204;-80
2024/01/02 03:29:34;;;;;;;1.57;0.90;;;;;;;-145.69;53.07;52262.19;5092583;28;20198;-79
2024/01/02 03:32:04;;;;;;;2.83;0.70;;;;;;;-145.69;53.35;52276.06;5094810;28;20225;-80
2024/01/02 03:34:30;;;;;;;1.03;0.60;;;;;;;-145.69;54.21;52285.97;5096724;28;20262;-80
2024/01/02 03:36:57;;;;;;;2.17;0.70;;;;;;;-145.69;54.33;52274.06;5092128;28;20205;-79
2024/01/02 03:39:23;;;;;;;2.20;0.90;;;;;;;-145.69;54.68;52246.34;5097034;28;20206;-80
2024/01/02 03:41:49;;;;;;;2.07;1.00;;;;;;;-145.69;54.86;52248.34;5096818;28;20209;-79
2024/01/02 03:44:18;;;;;;;1.13;0.80;;;;;;;-145.69;55.09;52266.16;5095655;28;20323;-79
2024/01/02 03:46:44;;;;;;;0.93;0.83;;;;;;;-145.69;55.08;52282.00;5096730;28;20275;-81
2024/01/02 03:49:12;;;;;;;2.07;1.10;;;;;;;-145.69;55.07;52238.44;5096737;28;20206;-80
2024/01/02 03:51:40;;;;;;;5.00;1.20;;;;;;;-145.69;55.48;52283.97;5096770;28;20229;-80
2024/01/02 03:54:07;;;;;;;0.70;0.70;;;;;;;-145.69;55.52;52242.38;5096515;28;20653;-80
2024/01/02 03:56:34;;;;;;;0.83;0.83;;;;;;;-145.69;55.70;52285.97;5096715;28;20198;-80
2024/01/02 03:59:00;;;;;;;1.47;1.00;;;;;;;-145.69;56.04;52252.28;5096367;28;20230;-80
2024/01/02 04:01:27;;;;;;;1.37;1.03;;;;;;;-145.69;56.59;52266.16;5096274;28;20672;-80
2024/01/02 04:03:57;;;;;;;2.23;1.10;;;;;;;-145.69;57.07;52272.09;5096577;28;20205;-80
2024/01/02 04:06:32;;;;;;;3.70;1.43;;;;;;;-145.69;57.23;52252.28;5096165;28;20194;-80
2024/01/02 04:08:58;;;;;;;1.83;1.10;;;;;;;-145.69;57.89;52293.88;5096249;28;20289;-80
2024/01/02 04:11:25;;;;;;;1.60;1.03;;;;;;;-145.69;58.44;52280.00;5096244;28;20221;-80
2024/01/02 04:13:51;;;;;;;1.57;1.07;;;;;;;-145.69;58.32;52262.19;5096072;28;20198;-80
2024/01/02 04:16:18;;;;;;;2.83;1.10;;;;;;;-145.69;58.10;52301.81;5096510;28;20210;-79
2024/01/02 04:18:50;;;;;;;1.63;1.20;;;;;;;-145.69;58.92;52270.13;5096187;28;20652;-80
2024/01/02 04:21:19;;;;;;;4.17;1.27;;;;;;;-145.69;59.02;52278.03;5096219;28;20292;-79
2024/01/02 04:23:47;;;;;;;1.47;1.10;;;;;;;-145.69;59.56;52282.00;5095924;28;20198;-80
2024/01/02 04:26:13;;;;;;;1.87;1.10;;;;;;;-145.69;58.93;52264.16;5096532;28;20205;-81
2024/01/02 04:28:40;;;;;;;5.77;1.40;;;;;;;-145.69;59.21;52313.69;5096075;28;20205;-80
2024/01/02 04:31:11;;;;;;;2.23;0.97;;;;;;;-145.69;59.19;52289.91;5096030;28;20229;-79
2024/01/02 04:33:38;;;;;;;4.10;1.00;;;;;;;-145.69;60.13;52274.06;5095898;28;20202;-80
2024/01/02 04:36:06;;;;;;;1.03;0.93;;;;;;;-145.69;59.94;52256.25;5095399;28;20621;-79
2024/01/02 04:38:33;;;;;;;1.00;0.90;;;;;;;-145.69;59.73;52299.81;5095800;28;20198;-80
2024/01/02 04:41:01;;;;;;;1.37;0.93;;;;;;;-145.69;59.42;52276.06;5095583;28;20201;-80
2024/01/02 04:43:27;;;;;;;2.33;1.40;;;;;;;-145.69;59.92;52282.00;5094667;28;20222;-80
2024/01/02 04:45:54;;;;;;;1.23;0.97;;;;;;;-145.69;60.36;52266.16;5095508;28;20679;-80
2024/01/02 04:48:21;;;;;;;1.50;1.00;;;;;;;-145.69;59.96;52293.88;5095524;28;20202;-79
2024/01/02 04:50:48;;;;;;;1.70;0.90;;;;;;;-145.69;60.30;52295.84;5095422;28;20595;-79
2024/01/02 04:53:14;;;;;;;0.80;0.80;;;;;;;-145.69;60.63;52274.06;5095064;28;20198;-80
2024/01/02 04:55:41;;;;;;;0.90;0.90;;;;;;;-145.69;60.54;52268.13;5095739;28;20194;-80
2024/01/02 04:58:09;;;;;;;1.20;0.90;;;;;;;-145.69;60.07;52270.13;5095268;28;20321;-80
2024/01/02 05:00:35;;;;;;;1.13;0.70;;;;;;;-145.69;60.36;52276.06;5095475;28;20195;-79
2024/01/02 05:03:02;;;;;;;1.07;0.80;;;;;;;-145.69;61.22;52282.00;5095056;28;20202;-81
2024/01/02 05:05:29;;;;;;;1.93;0.80;;;;;;;-145.69;61.10;52291.91;5094715;28;20186;-80
2024/01/02 05:07:55;;;;;;;0.70;0.70;;;;;;;-145.69;60.61;52266.16;5093991;28;20557;-80
2024/01/02 05:10:24;;;;;;;0.60;0.60;;;;;;;-145.69;61.65;52285.97;5095083;28;20201;-80
2024/01/02 05:12:51;;;;;;;0.70;0.70;;;;;;;-145.69;61.99;52268.13;5094729;28;20440;-80
2024/01/02 05:15:21;;;;;;;1.13;0.60;;;;;;;-145.69;62.24;52285.97;5094781;28;20653;-80
2024/01/02 05:17:48;;;;;;;1.03;0.93;;;;;;;-145.69;62.24;52282.00;5094974;28;20201;-80
2024/01/02 05:20:16;;;;;;;0.67;0.60;;;;;;;-145.69;62.34;52270.13;5095027;28;20225;-80
2024/01/02 05:22:44;;;;;;;0.63;0.60;;;;;;;-145.69;61.95;52303.78;5094646;28;20201;-79
2024/01/02 05:25:11;;;;;;;0.60;0.60;;;;;;;-145.69;61.60;52274.06;5094987;28;20225;-79
2024/01/02 05:27:37;;;;;;;0.90;0.70;;;;;;;-145.69;61.77;52272.09;5094764;28;20190;-79
2024/01/02 05:30:05;;;;;;;0.60;0.60;;;;;;;-145.69;61.59;52232.50;5094677;28;20202;-79
2024/01/02 05:32:33;;;;;;;0.80;0.80;;;;;;;-145.69;61.39;52278.03;5094507;28;20265;-79
2024/01/02 05:35:04;;;;;;;4.00;1.10;;;;;;;-145.69;61.56;52256.25;5084268;28;20202;-79
2024/01/02 05:37:31;;;;;;;0.70;0.70;;;;;;;-145.69;61.51;52278.03;5094294;28;20664;-79
2024/01/02 05:39:59;;;;;;;0.83;0.83;;;;;;;-145.69;61.19;52305.75;5094686;28;20584;-80
2024/01/02 05:42:26;;;;;;;0.70;0.70;;;;;;;-145.69;61.29;52287.94;5094598;28;20552;-79
2024/01/02 05:44:53;;;;;;;0.60;0.60;;;;;;;-145.69;61.41;52289.91;5094082;28;20244;-79
2024/01/02 05:47:19;;;;;;;0.77;0.70;;;;;;;-145.69;61.16;52293.88;5094331;28;20205;-79
2024/01/02 05:49:47;;;;;;;0.50;0.50;;;;;;;-145.69;61.06;52242.38;5094189;28;20563;-78
2024/01/02 05:52:13;;;;;;;1.33;0.67;;;;;;;-145.69;60.36;52252.28;5094312;28;20226;-80
2024/01/02 05:54:40;;;;;;;1.27;0.80;;;;;;;-145.69;60.92;52278.03;5094512;28;20199;-79
2024/01/02 05:57:07;;;;;;;0.77;0.77;;;;;;;-145.69;61.18;52311.69;5094301;28;20202;-79
2024/01/02 05:59:34;;;;;;;1.53;0.80;;;;;;;-145.69;61.16;52299.81;5094086;28;20596;-79
2024/01/02 06:02:00;;;;;;;1.93;0.70;;;;;;;-145.69;60.74;52260.22;5094089;28;20607;-80
2024/01/02 06:04:27;;;;;;;1.27;0.67;;;;;;;-145.69;60.91;52256.25;5093914;28;20221;-80
2024/01/02 06:06:55;;;;;;;0.67;0.67;;;;;;;-145.69;61.08;52266.16;5094359;28;20194;-79
2024/01/02 06:09:21;;;;;;;2.03;0.60;;;;;;;-145.69;61.08;52278.03;5094210;28;20564;-79
2024/01/02 06:11:48;;;;;;;0.67;0.67;;;;;;;-145.69;60.55;52270.13;5093934;28;20226;-79
2024/01/02 06:14:15;;;;;;;1.27;0.90;;;;;;;-145.69;61.24;52282.00;5093822;28;20202;-79
2024/01/02 06:16:42;;;;;;;1.00;0.90;;;;;;;-145.69;61.34;52280.00;5093802;28;20213;-79
2024/01/02 06:19:09;;;;;;;0.77;0.77;;;;;;;-145.69;60.82;52280.00;5093588;28;20225;-79
2024/01/02 06:21:35;;;;;;;0.67;0.67;;;;;;;-145.69;61.12;52274.06;5093926;28;20206;-78
2024/01/02 06:24:11;;;;;;;1.50;1.03;;;;;;;-145.69;61.52;52282.00;5093626;28;20666;-80
2024/01/02 06:26:41;;;;;;;1.00;0.90;;;;;;;-145.69;60.76;52301.81;5093757;28;20225;-79
2024/01/02 06:29:07;;;;;;;1.20;1.10;;;;;;;-145.69;60.31;52297.84;5093542;28;20251;-79
2024/01/02 06:31:34;;;;;;;1.00;0.80;;;;;;;-145.69;60.21;52262.19;5093762;28;20222;-79
2024/01/02 06:34:00;;;;;;;0.87;0.83;;;;;;;-145.69;60.50;52317.66;5093488;28;20202;-79
2024/01/02 06:36:27;;;;;;;0.90;0.77;;;;;;;-145.69;59.86;52299.81;5093076;28;20190;-80
2024/01/02 06:38:53;;;;;;;0.60;0.60;;;;;;;-145.69;60.45;52280.00;5093429;28;20206;-80
2024/01/02 06:41:21;;;;;;;0.80;0.80;;;;;;;-145.69;60.71;52238.44;5093380;28;20297;-79
2024/01/02 06:43:48;;;;;;;0.60;0.60;;;;;;;-145.69;61.31;52287.94;5092527;28;20493;-79
2024/01/02 06:46:14;;;;;;;0.77;0.77;;;;;;;-145.69;60.44;52238.44;5093101;28;20190;-79
2024/01/02 06:48:41;;;;;;;0.67;0.67;;;;;;;-145.69;60.89;52291.91;5093457;28;20209;-79
2024/01/02 06:51:10;;;;;;;0.50;0.50;;;;;;;-145.69;60.75;52287.94;5093243;28;20253;-79
2024/01/02 06:53:37;;;;;;;0.80;0.80;;;;;;;-145.69;60.52;52285.97;5093306;28;20194;-80
2024/01/02 06:56:07;;;;;;;2.43;0.60;;;;;;;-145.69;61.21;52272.09;5093204;28;20199;-79
2024/01/02 06:58:35;;;;;;;0.70;0.70;;;;;;;-145.69;61.11;52285.97;5092850;28;20230;-79
2024/01/02 07:01:01;;;;;;;1.23;0.70;;;;;;;-145.69;60.70;52272.09;5092734;28;20649;-79
2024/01/02 07:03:28;;;;;;;0.87;0.73;;;;;;;-145.69;60.31;52282.00;5093260;28;20194;-80
2024/01/02 07:05:54;;;;;;;0.60;0.60;;;;;;;-145.69;60.19;52285.97;5092138;28;20197;-80
2024/01/02 07:08:21;;;;;;;0.80;0.80;;;;;;;-145.69;59.80;52270.13;5092866;28;20656;-79
2024/01/02 07:10:48;;;;;;;0.73;0.63;;;;;;;-145.69;59.58;52268.13;5093151;28;20210;-79
2024/01/02 07:13:14;;;;;;;0.93;0.70;;;;;;;-145.69;60.11;52246.34;5092641;28;20229;-79
2024/01/02 07:15:42;;;;;;;0.60;0.60;;;;;;;-145.69;60.27;52256.25;5092715;28;20194;-79
2024/01/02 07:18:08;;;;;;;0.53;0.53;;;;;;;-145.69;59.94;52262.19;5092888;28;20645;-79
2024/01/02 07:20:35;;;;;;;0.50;0.50;;;;;;;-145.69;60.52;52260.22;5092828;28;20205;-79
2024/01/02 07:23:02;;;;;;;0.87;0.50;;;;;;;-145.69;60.06;52266.16;5092262;28;20206;-79
2024/01/02 07:25:28;;;;;;;0.60;0.60;;;;;;;-145.69;59.33;52303.78;5092714;28;20201;-79
2024/01/02 07:27:55;;;;;;;0.60;0.60;;;;;;;-145.69;59.63;52256.25;5092926;28;20202;-80
2024/01/02 07:30:21;;;;;;;0.80;0.60;;;;;;;-145.69;59.71;52282.00;5092751;28;20285;-79
2024/01/02 07:32:50;;;;;;;0.50;0.50;;;;;;;-145.69;60.02;52262.19;5092811;28;20221;-80
2024/01/02 07:35:16;;;;;;;0.97;0.70;;;;;;;-145.69;59.25;52282.00;5092363;28;20285;-80
2024/01/02 07:37:43;;;;;;;0.40;0.40;;;;;;;-145.69;59.31;52289.91;5092028;28;20202;-80
2024/01/02 07:40:10;;;;;;;0.50;0.50;;;;;;;-145.69;59.74;52283.97;5092656;28;20610;-79
2024/01/02 07:42:37;;;;;;;1.40;0.60;;;;;;;-145.69;59.13;52258.22;5092957;28;20206;-78
2024/01/02 07:45:04;;;;;;;2.40;0.60;;;;;;;-145.69;59.64;52246.34;5092493;28;20201;-79
2024/01/02 07:47:31;;;;;;;1.43;0.70;;;;;;;-145.69;59.31;52262.19;5092609;28;20194;-79
2024/01/02 07:49:59;;;;;;;1.30;0.70;;;;;;;-145.69;59.24;52244.38;5092531;28;20679;-79
2024/01/02 07:52:25;;;;;;;0.60;0.60;;;;;;;-145.69;58.64;52258.22;5092571;28;20271;-80
2024/01/02 07:54:52;;;;;;;0.60;0.60;;;;;;;-145.69;59.33;52293.88;5092654;28;20198;-79
2024/01/02 07:57:18;;;;;;;1.07;0.87;;;;;;;-145.69;59.18;52258.22;5092650;28;20208;-81
2024/01/02 07:59:45;;;;;;;0.60;0.60;;;;;;;-145.69;58.69;52266.16;5092681;28;20234;-81
2024/01/02 08:02:11;;;;;;;11.10;3.13;;;;;;;-145.69;58.31;52234.47;5092692;28;20217;-79
2024/01/02 08:04:38;;;;;;;2.67;1.40;;;;;;;-145.69;58.13;52278.03;5092079;28;20691;-79
2024/01/02 08:07:06;;;;;;;1.57;1.00;;;;;;;-145.69;58.53;52285.97;5092456;28;20198;-80
2024/01/02 08:09:41;;;;;;;2.20;1.27;;;;;;;-145.69;58.88;52250.31;5092769;28;20204;-79
2024/01/02 08:12:08;;;;;;;0.77;0.70;;;;;;;-145.69;58.63;52224.56;5092586;28;20217;-79
2024/01/02 08:14:34;;;;;;;0.50;0.50;;;;;;;-145.69;59.41;52234.47;5092565;28;20236;-80
2024/01/02 08:17:01;;;;;;;0.50;0.50;;;;;;;-145.69;59.69;52301.81;5092149;28;20191;-80
2024/01/02 08:19:27;;;;;;;0.50;0.50;;;;;;;-145.69;59.76;52289.91;5094950;28;20197;-79
2024/01/02 08:21:54;;;;;;;0.70;0.70;;;;;;;-145.69;59.66;52216.66;5095996;28;20220;-80
2024/01/02 08:24:22;;;;;;;0.40;0.40;;;;;;;-145.69;60.11;52254.28;5096101;28;20217;-81
2024/01/02 08:26:48;;;;;;;0.63;0.63;;;;;;;-145.69;60.79;52254.28;5096184;28;20198;-80
2024/01/02 08:29:15;;;;;;;1.07;0.90;;;;;;;-145.69;60.85;52285.97;5096044;28;20621;-81
2024/01/02 08:31:41;;;;;;;0.70;0.70;;;;;;;-145.69;61.25;52274.06;5095930;28;20218;-80
2024/01/02 08:34:08;;;;;;;0.97;0.70;;;;;;;-145.69;61.46;52293.88;5095426;28;20571;-80
2024/01/02 08:36:36;;;;;;;1.57;1.00;;;;;;;-145.69;61.49;52258.22;5094801;28;20195;-79
2024/01/02 08:39:03;;;;;;;0.90;0.90;;;;;;;-145.69;61.14;52264.16;5095525;28;20206;-81
2024/01/02 08:41:31;;;;;;;1.07;0.90;;;;;;;-145.69;61.14;52270.13;5095642;28;20209;-80
2024/01/02 08:43:58;;;;;;;0.70;0.70;;;;;;;-145.69;61.51;52256.25;5095797;28;20202;-79
2024/01/02 08:46:24;;;;;;;0.50;0.50;;;;;;;-145.69;61.75;52278.03;5095170;28;20200;-81
2024/01/02 08:48:51;;;;;;;0.50;0.50;;;;;;;-145.69;61.31;52266.16;5095530;28;20194;-80
2024/01/02 08:51:17;;;;;;;4.25;3.50;;;;;;;-145.69;62.44;52256.25;5094695;28;20432;-80
2024/01/02 08:53:44;;;;;;;1.17;1.00;;;;;;;-145.69;61.91;52266.16;5095405;28;20711;-80
2024/01/02 08:56:11;;;;;;;0.57;0.57;;;;;;;-145.69;62.83;52248.34;5095558;28;20202;-80
2024/01/02 08:58:38;;;;;;;0.87;0.60;;;;;;;-145.69;62.55;52236.44;5095260;28;20234;-80
2024/01/02 09:01:05;;;;;;;0.90;0.83;;;;;;;-145.69;62.53;52278.03;5095262;28;20237;-80
2024/01/02 09:03:31;;;;;;;1.03;0.97;;;;;;;-145.69;61.47;52266.16;5095121;28;20202;-80
2024/01/02 09:05:58;;;;;;;1.10;1.00;;;;;;;-145.69;61.85;52254.28;5094529;28;20190;-81
2024/01/02 09:08:24;;;;;;;0.60;0.60;;;;;;;-145.69;61.22;52250.31;5095421;28;20209;-80
2024/01/02 09:10:51;;;;;;;0.63;0.63;;;;;;;-145.69;61.29;52295.84;5094964;28;20194;-80
2024/01/02 09:13:18;;;;;;;0.50;0.50;;;;;;;-145.69;60.64;52278.03;5094801;28;20232;-80
2024/01/02 09:15:46;;;;;;;0.70;0.70;;;;;;;-145.69;61.07;52242.38;5094987;28;20637;-80
2024/01/02 09:18:12;;;;;;;0.57;0.57;;;;;;;-145.69;61.06;52293.88;5095247;28;20210;-80
2024/01/02 09:20:39;;;;;;;0.70;0.70;;;;;;;-145.69;60.51;52280.00;5094985;28;20202;-80
2024/01/02 09:23:05;;;;;;;0.50;0.50;;;;;;;-145.69;60.54;52252.28;5094870;28;20576;-80
2024/01/02 09:25:36;;;;;;;1.83;1.00;;;;;;;-145.69;60.36;52248.34;5094996;28;20209;-79
2024/01/02 09:28:07;;;;;;;1.00;0.90;;;;;;;-145.69;60.36;52246.34;5092195;28;20198;-80
2024/01/02 09:30:34;;;;;;;1.50;1.00;;;;;;;-145.69;60.71;52242.38;5094264;28;20209;-81
2024/01/02 09:33:01;;;;;;;0.90;0.87;;;;;;;-145.69;60.86;52254.28;5094803;28;20237;-81
2024/01/02 09:35:28;;;;;;;0.60;0.60;;;;;;;-145.69;60.62;52266.16;5094314;28;20208;-82
2024/01/02 09:37:55;;;;;;;0.77;0.70;;;;;;;-145.69;61.30;52266.16;5087275;28;20530;-81
2024/01/02 09:40:37;;;;;;;0.70;0.70;;;;;;;-145.69;60.71;52242.38;5074316;28;20199;-82
2024/01/02 09:43:11;;;;;;;0.50;0.50;;;;;;;-145.69;60.85;52236.44;5085036;28;20197;-81
2024/01/02 09:45:49;;;;;;;0.87;0.70;;;;;;;-145.69;61.03;52258.22;5094390;28;20198;-80
2024/01/02 09:48:38;;;;;;;0.70;0.60;;;;;;;-145.69;60.30;52258.22;5094201;28;20247;-81
2024/01/02 09:51:08;;;;;;;0.50;0.50;;;;;;;-145.69;60.55;52285.97;5094241;28;20209;-81
2024/01/02 09:53:52;;;;;;;2.33;0.93;;;;;;;-145.69;60.05;52291.91;5094086;28;20779;-81
2024/01/02 09:56:28;;;;;;;0.53;0.53;;;;;;;-145.69;60.31;52244.38;5094349;28;20206;-80
2024/01/02 09:59:05;;;;;;;1.70;1.13;;;;;;;-145.69;60.51;52230.50;5094123;28;20226;-79
2024/01/02 10:01:40;;;;;;;0.93;0.80;;;;;;;-145.69;60.29;52228.53;5094305;28;20559;-79
2024/01/02 10:04:34;;;;;;;0.90;0.90;;;;;;;-145.69;60.20;52266.16;5094134;28;20212;-81
2024/01/02 10:07:21;;;;;;;0.73;0.73;;;;;;;-145.69;59.69;52270.13;5094290;28;20202;-79
2024/01/02 10:10:06;;;;;;;0.80;0.73;;;;;;;-145.69;59.47;52250.31;5094076;28;20194;-79
2024/01/02 10:12:46;;;;;;;0.80;0.80;;;;;;;-145.69;59.09;52238.44;5093797;28;20695;-80
2024/01/02 10:15:31;;;;;;;0.70;0.70;;;;;;;-145.69;59.56;52272.09;5094052;28;20294;-80
2024/01/02 10:18:08;;;;;;;0.70;0.70;;;;;;;-145.69;60.21;52250.31;5093796;28;20607;-80
2024/01/02 10:20:44;;;;;;;0.63;0.63;;;;;;;-145.69;60.20;52234.47;5093543;28;20194;-80
2024/01/02 10:23:27;;;;;;;0.80;0.70;;;;;;;-145.69;59.84;52240.41;5093684;28;20289;-80
2024/01/02 10:25:58;;;;;;;0.60;0.60;;;;;;;-145.69;59.66;52283.97;5093782;28;20294;-80
2024/01/02 10:28:27;;;;;;;0.60;0.60;;;;;;;-145.69;59.89;52226.53;5093815;28;20233;-80
2024/01/02 10:31:01;;;;;;;0.60;0.60;;;;;;;-145.69;60.36;52244.38;5093735;28;20233;-80
2024/01/02 10:33:32;;;;;;;0.77;0.77;;;;;;;-145.69;59.82;52262.19;5093445;28;20229;-80
2024/01/02 10:36:03;;;;;;;0.60;0.60;;;;;;;-145.69;60.26;52258.22;5093287;28;20607;-79
2024/01/02 10:38:43;;;;;;;1.00;0.73;;;;;;;-145.69;59.64;52250.31;5093431;28;20198;-80
2024/01/02 10:41:27;;;;;;;0.40;0.40;;;;;;;-145.69;59.51;52246.34;5092667;28;20208;-80
2024/01/02 10:44:05;;;;;;;0.60;0.60;;;;;;;-145.69;59.71;52254.28;5093476;28;20248;-80
2024/01/02 10:46:39;;;;;;;0.47;0.47;;;;;;;-145.69;59.91;52198.81;5093576;28;20259;-80
2024/01/02 10:49:18;;;;;;;0.47;0.47;;;;;;;-145.69;59.96;52238.44;5093274;28;20233;-79
2024/01/02 10:51:50;;;;;;;0.70;0.70;;;;;;;-145.69;59.62;52246.34;5092880;28;20200;-80
2024/01/02 10:54:22;;;;;;;0.70;0.70;;;;;;;-145.69;58.96;52234.47;5093265;28;20324;-81
2024/01/02 10:56:55;;;;;;;0.67;0.67;;;;;;;-145.69;58.67;52234.47;5093218;28;20197;-80
2024/01/02 10:59:38;;;;;;;0.50;0.50;;;;;;;-145.69;58.96;52234.47;5092971;28;20328;-81
2024/01/02 11:02:16;;;;;;;2.50;1.40;;;;;;;-145.69;59.31;52258.22;5092941;28;20293;-81
2024/01/02 11:04:50;;;;;;;1.67;1.33;;;;;;;-145.69;59.17;52254.28;5094941;28;20228;-80
2024/01/02 11:07:22;;;;;;;1.83;1.40;;;;;;;-145.69;58.46;52274.06;5109061;28;20220;-81
2024/01/02 11:09:56;;;;;;;1.67;1.00;;;;;;;-145.69;58.16;52242.38;5109988;28;20196;-80
2024/01/02 11:12:27;;;;;;;1.20;0.70;;;;;;;-145.69;58.24;52230.50;5092926;28;20201;-81
2024/01/02 11:14:55;;;;;;;1.37;0.87;;;;;;;-145.69;58.48;52248.34;5092985;28;20209;-80
2024/01/02 11:17:23;;;;;;;2.50;1.40;;;;;;;-145.69;57.99;52192.88;5092914;28;20197;-80
2024/01/02 11:19:57;;;;;;;0.73;0.60;;;;;;;-145.69;57.13;52234.47;5092868;28;20206;-79
2024/01/02 11:22:31;;;;;;;0.70;0.70;;;;;;;-145.69;58.08;52230.50;5091974;28;20194;-80